createdAt,value
2023-05-16T00:01:14.572Z,7.90
2023-05-16T00:03:43.346Z,6.30
2023-05-16T00:06:11.530Z,6.50
2023-05-16T00:08:39.312Z,7.10
2023-05-16T00:11:07.110Z,7.90
2023-05-16T00:13:35.224Z,7.40
2023-05-16T00:16:05.134Z,6.40
2023-05-16T00:18:32.842Z,8.20
2023-05-16T00:21:00.572Z,7.10
2023-05-16T00:23:28.371Z,8.70
2023-05-16T00:25:56.171Z,8.70
2023-05-16T00:28:24.012Z,7.50
2023-05-16T00:30:51.675Z,7.10
2023-05-16T00:33:19.454Z,7.60
2023-05-16T00:35:47.176Z,7.50
2023-05-16T00:38:14.837Z,7.20
2023-05-16T00:40:42.473Z,11.60
2023-05-16T00:43:10.160Z,9.00
2023-05-16T00:45:37.878Z,8.70
2023-05-16T00:48:05.771Z,6.80
2023-05-16T00:50:34.655Z,7.30
2023-05-16T00:53:02.445Z,9.40
2023-05-16T00:55:30.288Z,8.10
2023-05-16T00:57:59.827Z,8.00
2023-05-16T01:00:27.761Z,8.70
2023-05-16T01:02:56.354Z,8.90
2023-05-16T01:05:24.195Z,7.40
2023-05-16T01:07:51.898Z,8.70
2023-05-16T01:10:19.657Z,7.90
2023-05-16T01:12:56.933Z,6.00
2023-05-16T01:15:34.525Z,7.50
2023-05-16T01:18:31.740Z,9.90
2023-05-16T01:21:04.041Z,6.00
2023-05-16T01:23:41.659Z,8.70
2023-05-16T01:28:41.334Z,7.50
2023-05-16T01:31:09.032Z,9.00
2023-05-16T01:33:36.703Z,8.30
2023-05-16T01:36:29.850Z,8.80
2023-05-16T01:39:09.917Z,8.50
2023-05-16T01:41:54.093Z,8.00
2023-05-16T01:44:46.956Z,7.40
2023-05-16T01:47:17.352Z,8.40
2023-05-16T01:50:05.011Z,8.20
2023-05-16T01:52:40.829Z,8.10
2023-05-16T01:55:16.717Z,8.40
2023-05-16T01:57:46.183Z,8.50
2023-05-16T02:00:14.200Z,9.10
2023-05-16T02:02:41.909Z,8.80
2023-05-16T02:05:09.765Z,8.60
2023-05-16T02:07:37.868Z,7.80
2023-05-16T02:10:06.681Z,9.70
2023-05-16T02:12:34.313Z,8.70
2023-05-16T02:15:01.995Z,7.60
2023-05-16T02:17:29.654Z,8.40
2023-05-16T02:19:57.332Z,7.80
2023-05-16T02:22:25.100Z,7.50
2023-05-16T02:24:52.815Z,7.40
2023-05-16T02:27:20.686Z,12.60
2023-05-16T02:29:48.424Z,7.70
2023-05-16T02:32:16.338Z,8.10
2023-05-16T02:34:43.975Z,8.60
2023-05-16T02:37:13.360Z,7.50
2023-05-16T02:39:41.183Z,6.60
2023-05-16T02:42:09.074Z,8.70
2023-05-16T02:44:36.733Z,7.10
2023-05-16T02:47:04.631Z,8.80
2023-05-16T02:49:32.593Z,7.60
2023-05-16T02:52:00.345Z,6.60
2023-05-16T02:54:28.008Z,8.20
2023-05-16T02:56:55.753Z,8.70
2023-05-16T02:59:23.442Z,9.20
2023-05-16T03:01:51.588Z,6.40
2023-05-16T03:04:19.316Z,9.50
2023-05-16T03:06:46.991Z,9.10
2023-05-16T03:09:14.738Z,7.70
2023-05-16T03:11:42.570Z,11.50
2023-05-16T03:14:10.303Z,8.00
2023-05-16T03:16:39.019Z,7.20
2023-05-16T03:19:06.783Z,8.00
2023-05-16T03:21:34.473Z,8.30
2023-05-16T03:24:05.714Z,8.60
2023-05-16T03:26:33.548Z,9.80
2023-05-16T03:29:01.247Z,8.20
2023-05-16T03:31:29.038Z,7.50
2023-05-16T03:33:56.755Z,7.80
2023-05-16T03:36:24.581Z,9.10
2023-05-16T03:38:52.375Z,9.20
2023-05-16T03:41:20.017Z,9.60
2023-05-16T03:43:47.656Z,11.50
2023-05-16T03:46:15.345Z,8.70
2023-05-16T03:48:43.009Z,8.50
2023-05-16T03:51:10.730Z,9.40
2023-05-16T03:53:38.518Z,8.40
2023-05-16T03:56:06.933Z,8.90
2023-05-16T03:58:34.606Z,7.80
2023-05-16T04:01:02.521Z,11.30
2023-05-16T04:03:30.437Z,9.70
2023-05-16T04:05:58.243Z,9.50
2023-05-16T04:08:26.056Z,7.40
2023-05-16T04:10:53.760Z,11.10
2023-05-16T04:13:21.612Z,10.10
2023-05-16T04:15:49.334Z,7.80
2023-05-16T04:18:17.229Z,9.90
2023-05-16T04:20:47.648Z,8.80
2023-05-16T04:23:15.278Z,9.20
2023-05-16T04:25:43.027Z,8.20
2023-05-16T04:28:10.813Z,9.00
2023-05-16T04:30:38.526Z,9.70
2023-05-16T04:33:07.255Z,8.30
2023-05-16T04:35:35.470Z,9.30
2023-05-16T04:38:03.182Z,8.60
2023-05-16T04:40:30.913Z,8.20
2023-05-16T04:42:58.557Z,11.30
2023-05-16T04:45:26.763Z,8.50
2023-05-16T04:47:54.628Z,9.90
2023-05-16T04:50:22.342Z,8.80
2023-05-16T04:52:49.978Z,11.00
2023-05-16T04:55:17.996Z,9.00
2023-05-16T04:57:45.683Z,8.00
2023-05-16T05:00:13.742Z,8.80
2023-05-16T05:02:41.552Z,9.40
2023-05-16T05:05:09.458Z,8.10
2023-05-16T05:07:37.219Z,9.20
2023-05-16T05:10:06.661Z,9.00
2023-05-16T05:12:35.780Z,11.10
2023-05-16T05:15:04.472Z,9.10
2023-05-16T05:17:32.779Z,9.70
2023-05-16T05:20:02.832Z,8.50
2023-05-16T05:22:31.030Z,9.10
2023-05-16T05:24:58.742Z,8.00
2023-05-16T05:27:27.226Z,8.40
2023-05-16T05:29:54.944Z,8.40
2023-05-16T05:32:22.606Z,8.80
2023-05-16T05:34:50.661Z,10.40
2023-05-16T05:37:18.837Z,8.70
2023-05-16T05:39:46.602Z,8.30
2023-05-16T05:42:14.267Z,10.70
2023-05-16T05:44:41.920Z,8.60
2023-05-16T05:47:10.036Z,11.70
2023-05-16T05:49:37.815Z,9.00
2023-05-16T05:52:06.077Z,8.10
2023-05-16T05:54:33.991Z,8.00
2023-05-16T05:57:01.785Z,9.20
2023-05-16T05:59:29.525Z,8.10
2023-05-16T06:01:58.121Z,8.80
2023-05-16T06:04:26.100Z,7.80
2023-05-16T06:06:53.754Z,10.40
2023-05-16T06:09:22.108Z,11.10
2023-05-16T06:11:50.753Z,7.30
2023-05-16T06:14:18.475Z,9.00
2023-05-16T06:16:46.182Z,8.40
2023-05-16T06:19:16.397Z,9.30
2023-05-16T06:21:45.210Z,11.20
2023-05-16T06:24:12.846Z,7.70
2023-05-16T06:26:40.619Z,9.10
2023-05-16T06:29:08.285Z,10.10
2023-05-16T06:31:36.015Z,7.30
2023-05-16T06:34:04.263Z,10.20
2023-05-16T06:36:32.032Z,8.20
2023-05-16T06:38:59.741Z,9.80
2023-05-16T06:41:27.486Z,11.30
2023-05-16T06:43:55.177Z,9.10
2023-05-16T06:46:22.957Z,8.10
2023-05-16T06:48:51.048Z,9.40
2023-05-16T06:51:22.627Z,7.70
2023-05-16T06:53:51.033Z,8.40
2023-05-16T06:56:18.755Z,9.40
2023-05-16T06:58:46.803Z,7.70
2023-05-16T07:01:14.536Z,7.80
2023-05-16T07:03:42.357Z,8.80
2023-05-16T07:06:10.240Z,9.80
2023-05-16T07:08:38.333Z,7.20
2023-05-16T07:11:06.249Z,7.00
2023-05-16T07:13:35.928Z,6.70
2023-05-16T07:16:04.339Z,8.20
2023-05-16T07:18:32.523Z,5.50
2023-05-16T07:21:00.701Z,5.10
2023-05-16T07:23:28.474Z,6.20
2023-05-16T07:25:56.491Z,6.10
2023-05-16T07:28:24.350Z,6.20
2023-05-16T07:30:52.356Z,6.10
2023-05-16T07:33:20.116Z,6.40
2023-05-16T07:35:48.006Z,8.60
2023-05-16T07:38:15.734Z,5.60
2023-05-16T07:40:43.622Z,4.50
2023-05-16T07:43:11.367Z,5.10
2023-05-16T07:45:39.277Z,5.20
2023-05-16T07:48:07.167Z,5.20
2023-05-16T07:50:35.027Z,4.70
2023-05-16T07:53:03.059Z,6.10
2023-05-16T07:55:31.068Z,7.30
2023-05-16T07:57:58.932Z,8.30
2023-05-16T08:00:26.793Z,4.20
2023-05-16T08:02:54.721Z,7.50
2023-05-16T08:05:22.764Z,7.20
2023-05-16T08:07:50.799Z,4.00
2023-05-16T08:10:18.560Z,5.00
2023-05-16T08:12:47.138Z,4.60
2023-05-16T08:15:15.477Z,4.50
2023-05-16T08:17:43.426Z,4.70
2023-05-16T08:20:12.173Z,4.70
2023-05-16T08:22:39.969Z,4.40
2023-05-16T08:25:09.097Z,5.00
2023-05-16T08:27:36.927Z,3.40
2023-05-16T08:30:05.439Z,7.80
2023-05-16T08:32:33.354Z,4.70
2023-05-16T08:35:01.661Z,4.50
2023-05-16T08:37:32.308Z,4.20
2023-05-16T08:40:00.199Z,3.90
2023-05-16T08:42:28.064Z,4.20
2023-05-16T08:44:56.150Z,4.40
2023-05-16T08:47:25.846Z,4.30
2023-05-16T08:49:58.133Z,4.50
2023-05-16T08:52:30.726Z,3.70
2023-05-16T08:55:11.001Z,4.50
2023-05-16T08:57:40.833Z,4.30
2023-05-16T09:00:13.424Z,3.20
2023-05-16T09:02:42.592Z,3.50
2023-05-16T09:05:15.407Z,4.50
2023-05-16T09:07:44.528Z,2.70
2023-05-16T09:10:13.427Z,3.90
2023-05-16T09:12:42.314Z,2.80
2023-05-16T09:15:11.466Z,3.00
2023-05-16T09:17:44.379Z,4.20
2023-05-16T09:20:14.862Z,2.70
2023-05-16T09:22:56.755Z,2.70
2023-05-16T09:25:31.496Z,2.70
2023-05-16T09:28:02.410Z,3.40
2023-05-16T09:30:34.372Z,4.00
2023-05-16T09:33:03.342Z,2.50
2023-05-16T09:35:44.215Z,2.60
2023-05-16T09:38:18.235Z,3.60
2023-05-16T09:40:46.807Z,2.80
2023-05-16T09:43:17.289Z,2.80
2023-05-16T09:45:48.136Z,6.10
2023-05-16T09:48:17.168Z,3.70
2023-05-16T09:50:53.624Z,3.50
2023-05-16T09:53:28.729Z,3.70
2023-05-16T09:56:13.751Z,2.50
2023-05-16T09:58:43.861Z,3.20
2023-05-16T10:01:12.340Z,4.00
2023-05-16T10:03:41.838Z,3.60
2023-05-16T10:06:10.971Z,4.40
2023-05-16T10:08:42.916Z,3.00
2023-05-16T10:11:11.971Z,2.20
2023-05-16T10:13:40.615Z,2.40
2023-05-16T10:16:14.157Z,2.50
2023-05-16T10:18:43.698Z,3.60
2023-05-16T10:21:16.485Z,2.50
2023-05-16T10:23:48.679Z,3.30
2023-05-16T10:26:18.011Z,2.80
2023-05-16T10:28:46.445Z,2.30
2023-05-16T10:31:15.491Z,3.20
2023-05-16T10:33:43.696Z,2.70
2023-05-16T10:36:12.507Z,3.20
2023-05-16T10:38:41.235Z,1.90
2023-05-16T10:41:10.136Z,2.50
2023-05-16T10:43:38.014Z,3.30
2023-05-16T10:46:09.969Z,1.80
2023-05-16T10:48:40.247Z,4.80
2023-05-16T10:51:38.903Z,2.30
2023-05-16T10:54:12.796Z,2.10
2023-05-16T10:56:40.709Z,2.60
2023-05-16T10:59:26.197Z,3.60
2023-05-16T11:01:56.163Z,2.50
2023-05-16T11:04:24.322Z,2.30
2023-05-16T11:06:54.060Z,2.70
2023-05-16T11:09:25.610Z,3.40
2023-05-16T11:11:53.669Z,2.70
2023-05-16T11:14:42.511Z,2.70
2023-05-16T11:17:21.617Z,2.50
2023-05-16T11:19:59.529Z,4.10
2023-05-16T11:22:33.656Z,2.20
2023-05-16T11:25:10.695Z,2.50
2023-05-16T11:27:48.313Z,2.80
2023-05-16T11:30:19.523Z,2.80
2023-05-16T11:32:48.760Z,3.20
2023-05-16T11:35:18.369Z,2.90
2023-05-16T11:37:47.241Z,3.80
2023-05-16T11:40:17.409Z,9.40
2023-05-16T11:42:50.402Z,11.20
2023-05-16T11:45:21.816Z,4.40
2023-05-16T11:47:50.110Z,4.80
2023-05-16T11:50:26.234Z,4.00
2023-05-16T11:52:57.224Z,2.90
2023-05-16T11:58:02.187Z,2.80
2023-05-16T12:00:30.200Z,3.80
2023-05-16T12:03:04.557Z,4.50
2023-05-16T12:05:34.304Z,3.20
2023-05-16T12:08:04.872Z,4.20
2023-05-16T12:10:35.742Z,2.80
2023-05-16T12:13:04.169Z,2.70
2023-05-16T12:15:33.393Z,4.10
2023-05-16T12:18:02.459Z,11.20
2023-05-16T12:20:30.609Z,3.70
2023-05-16T12:22:59.093Z,2.90
2023-05-16T12:25:42.061Z,2.60
2023-05-16T12:28:12.630Z,2.90
2023-05-16T12:30:47.915Z,3.30
2023-05-16T12:33:17.331Z,3.70
2023-05-16T12:35:47.335Z,3.40
2023-05-16T12:38:17.526Z,4.20
2023-05-16T12:40:46.370Z,2.70
2023-05-16T12:43:21.089Z,2.70
2023-05-16T12:45:54.880Z,3.10
2023-05-16T12:48:24.583Z,3.80
2023-05-16T12:50:53.518Z,4.20
2023-05-16T12:53:21.513Z,2.90
2023-05-16T12:55:49.287Z,3.00
2023-05-16T12:58:17.854Z,2.90
2023-05-16T13:00:45.886Z,3.90
2023-05-16T13:03:13.765Z,4.20
2023-05-16T13:05:44.744Z,3.60
2023-05-16T13:08:19.998Z,4.40
2023-05-16T13:10:47.807Z,3.10
2023-05-16T13:13:28.784Z,2.80
2023-05-16T13:16:04.371Z,3.30
2023-05-16T13:18:32.433Z,4.20
2023-05-16T13:21:00.188Z,3.00
2023-05-16T13:23:27.924Z,2.70
2023-05-16T13:25:55.861Z,4.00
2023-05-16T13:28:23.558Z,3.00
2023-05-16T13:30:51.645Z,2.80
2023-05-16T13:33:19.454Z,2.70
2023-05-16T13:35:47.630Z,2.30
2023-05-16T13:38:15.394Z,2.30
2023-05-16T13:40:43.107Z,2.80
2023-05-16T13:43:11.347Z,2.90
2023-05-16T13:45:39.423Z,3.00
2023-05-16T13:48:07.672Z,2.90
2023-05-16T13:50:35.779Z,3.20
2023-05-16T13:53:07.704Z,4.00
2023-05-16T13:55:38.858Z,3.50
2023-05-16T13:58:07.153Z,3.30
2023-05-16T14:00:45.289Z,5.80
2023-05-16T14:03:16.168Z,3.40
2023-05-16T14:05:44.454Z,3.10
2023-05-16T14:08:12.188Z,3.10
2023-05-16T14:10:39.942Z,2.50
2023-05-16T14:13:07.990Z,3.50
2023-05-16T14:15:35.926Z,2.50
2023-05-16T14:18:04.677Z,3.50
2023-05-16T14:20:32.609Z,2.70
2023-05-16T14:23:00.472Z,3.30
2023-05-16T14:25:29.463Z,3.00
2023-05-16T14:27:58.593Z,2.90
2023-05-16T14:30:27.533Z,2.60
2023-05-16T14:32:56.291Z,2.30
2023-05-16T14:35:24.265Z,2.60
2023-05-16T14:37:52.254Z,2.30
2023-05-16T14:40:22.739Z,2.60
2023-05-16T14:42:51.047Z,2.60
2023-05-16T14:45:18.870Z,3.90
2023-05-16T14:47:48.380Z,2.50
2023-05-16T14:50:16.127Z,3.10
2023-05-16T14:52:44.210Z,2.70
2023-05-16T14:55:12.078Z,2.70
2023-05-16T14:57:39.876Z,2.50
2023-05-16T15:00:09.065Z,3.40
2023-05-16T15:02:36.886Z,3.50
2023-05-16T15:05:06.464Z,3.00
2023-05-16T15:07:35.189Z,3.90
2023-05-16T15:10:03.749Z,2.80
2023-05-16T15:12:32.187Z,2.50
2023-05-16T15:15:00.069Z,2.50
2023-05-16T15:17:27.936Z,2.70
2023-05-16T15:19:55.976Z,3.40
2023-05-16T15:22:23.937Z,4.70
2023-05-16T15:24:51.886Z,2.60
2023-05-16T15:27:19.645Z,3.60
2023-05-16T15:29:49.661Z,3.70
2023-05-16T15:32:18.370Z,3.20
2023-05-16T15:34:49.597Z,4.90
2023-05-16T15:37:17.489Z,3.60
2023-05-16T15:39:45.447Z,2.30
2023-05-16T15:42:13.482Z,4.00
2023-05-16T15:44:41.990Z,3.10
2023-05-16T15:47:10.919Z,3.60
2023-05-16T15:49:40.298Z,3.40
2023-05-16T15:52:09.136Z,2.50
2023-05-16T15:54:45.239Z,3.50
2023-05-16T15:57:13.456Z,3.50
2023-05-16T15:59:41.948Z,2.60
2023-05-16T16:02:11.262Z,5.00
2023-05-16T16:04:40.347Z,4.50
2023-05-16T16:07:08.781Z,2.80
2023-05-16T16:09:37.102Z,2.90
2023-05-16T16:12:06.444Z,3.60
2023-05-16T16:14:34.998Z,2.50
2023-05-16T16:17:07.989Z,7.10
2023-05-16T16:19:37.484Z,3.80
2023-05-16T16:22:07.702Z,5.20
2023-05-16T16:24:36.441Z,3.60
2023-05-16T16:27:04.634Z,4.80
2023-05-16T16:29:32.999Z,3.00
2023-05-16T16:32:01.218Z,3.30
2023-05-16T16:34:29.234Z,4.30
2023-05-16T16:36:57.712Z,2.90
2023-05-16T16:39:26.381Z,3.00
2023-05-16T16:41:57.243Z,2.70
2023-05-16T16:44:30.964Z,3.20
2023-05-16T16:46:59.400Z,3.20
2023-05-16T16:49:28.228Z,2.70
2023-05-16T16:51:57.051Z,2.60
2023-05-16T16:54:25.854Z,4.30
2023-05-16T16:56:54.539Z,3.60
2023-05-16T16:59:22.551Z,4.10
2023-05-16T17:01:52.869Z,3.80
2023-05-16T17:04:21.644Z,3.40
2023-05-16T17:06:50.172Z,4.80
2023-05-16T17:09:19.870Z,3.30
2023-05-16T17:11:49.063Z,3.30
2023-05-16T17:14:17.066Z,3.20
2023-05-16T17:16:45.909Z,2.90
2023-05-16T17:19:14.518Z,3.20
2023-05-16T17:21:43.791Z,3.80
2023-05-16T17:24:11.956Z,4.10
2023-05-16T17:26:40.025Z,3.50
2023-05-16T17:29:08.454Z,3.40
2023-05-16T17:31:37.480Z,5.90
2023-05-16T17:34:05.448Z,5.80
2023-05-16T17:36:33.446Z,4.70
2023-05-16T17:39:01.712Z,3.40
2023-05-16T17:41:30.057Z,3.60
2023-05-16T17:43:58.648Z,3.40
2023-05-16T17:46:27.400Z,3.70
2023-05-16T17:48:55.696Z,3.50
2023-05-16T17:51:23.702Z,5.10
2023-05-16T17:53:52.872Z,4.10
2023-05-16T17:56:21.353Z,3.90
2023-05-16T17:58:49.499Z,4.90
2023-05-16T18:01:17.630Z,7.20
2023-05-16T18:03:45.620Z,5.80
2023-05-16T18:06:14.252Z,4.70
2023-05-16T18:08:42.562Z,4.30
2023-05-16T18:11:11.284Z,4.60
2023-05-16T18:13:39.567Z,7.50
2023-05-16T18:16:08.973Z,4.40
2023-05-16T18:18:38.155Z,6.00
2023-05-16T18:21:06.562Z,5.30
2023-05-16T18:23:34.941Z,6.00
2023-05-16T18:26:03.162Z,5.40
2023-05-16T18:28:30.963Z,5.40
2023-05-16T18:30:59.042Z,6.40
2023-05-16T18:33:27.125Z,5.20
2023-05-16T18:35:55.061Z,5.20
2023-05-16T18:38:32.640Z,4.90
2023-05-16T18:41:02.157Z,5.00
2023-05-16T18:43:31.448Z,4.60
2023-05-16T18:45:59.625Z,6.20
2023-05-16T18:48:27.984Z,5.00
2023-05-16T18:50:56.761Z,7.30
2023-05-16T18:53:25.369Z,4.60
2023-05-16T18:55:53.672Z,5.50
2023-05-16T18:58:22.128Z,4.80
2023-05-16T19:00:50.316Z,5.50
2023-05-16T19:03:19.409Z,4.30
2023-05-16T19:05:47.711Z,6.40
2023-05-16T19:08:16.108Z,5.00
2023-05-16T19:10:45.107Z,4.90
2023-05-16T19:13:13.169Z,4.40
2023-05-16T19:15:41.326Z,4.90
2023-05-16T19:18:09.644Z,5.10
2023-05-16T19:20:37.939Z,4.80
2023-05-16T19:23:07.038Z,4.00
2023-05-16T19:25:35.321Z,6.00
2023-05-16T19:28:03.457Z,6.00
2023-05-16T19:30:31.824Z,5.60
2023-05-16T19:33:00.527Z,4.80
2023-05-16T19:35:29.313Z,4.80
2023-05-16T19:37:57.948Z,5.90
2023-05-16T19:40:26.539Z,7.00
2023-05-16T19:42:55.031Z,5.70
2023-05-16T19:45:23.458Z,7.80
2023-05-16T19:47:51.867Z,6.70
2023-05-16T19:50:21.919Z,8.50
2023-05-16T19:52:50.281Z,7.20
2023-05-16T19:55:19.075Z,7.40
2023-05-16T19:57:47.621Z,7.70
2023-05-16T20:00:16.493Z,8.20
2023-05-16T20:02:44.682Z,8.10
2023-05-16T20:05:12.876Z,9.50
2023-05-16T20:07:41.611Z,6.30
2023-05-16T20:10:11.132Z,9.70
2023-05-16T20:12:38.966Z,8.30
2023-05-16T20:15:08.813Z,7.40
2023-05-16T20:17:37.603Z,8.70
2023-05-16T20:20:07.114Z,6.50
2023-05-16T20:22:38.632Z,7.20
2023-05-16T20:25:06.980Z,9.60
2023-05-16T20:27:35.846Z,6.60
2023-05-16T20:30:04.834Z,8.20
2023-05-16T20:32:33.154Z,8.80
2023-05-16T20:35:01.413Z,6.20
2023-05-16T20:37:29.208Z,8.20
2023-05-16T20:39:56.908Z,6.60
2023-05-16T20:42:24.809Z,5.80
2023-05-16T20:44:52.588Z,6.20
2023-05-16T20:47:20.538Z,6.40
2023-05-16T20:49:48.551Z,9.60
2023-05-16T20:52:16.353Z,5.40
2023-05-16T20:54:44.220Z,7.00
2023-05-16T20:57:12.069Z,6.60
2023-05-16T20:59:39.800Z,6.70
2023-05-16T21:02:10.371Z,7.60
2023-05-16T21:04:39.728Z,7.40
2023-05-16T21:07:08.694Z,7.30
2023-05-16T21:09:39.685Z,5.40
2023-05-16T21:12:12.707Z,8.00
2023-05-16T21:14:46.828Z,7.70
2023-05-16T21:17:14.607Z,7.30
2023-05-16T21:19:44.993Z,6.80
2023-05-16T21:22:12.930Z,7.60
2023-05-16T21:24:41.775Z,7.80
2023-05-16T21:27:10.578Z,6.40
2023-05-16T21:29:39.759Z,6.00
2023-05-16T21:32:09.394Z,5.30
2023-05-16T21:34:37.866Z,7.70
2023-05-16T21:37:07.803Z,7.90
2023-05-16T21:39:36.154Z,7.70
2023-05-16T21:42:04.971Z,6.30
2023-05-16T21:44:33.244Z,6.90
2023-05-16T21:47:01.466Z,6.10
2023-05-16T21:49:30.138Z,7.40
2023-05-16T21:51:58.511Z,5.90
2023-05-16T21:54:26.842Z,7.90
2023-05-16T21:56:55.227Z,7.10
2023-05-16T21:59:23.544Z,8.40
2023-05-16T22:01:51.710Z,10.80
2023-05-16T22:04:20.056Z,10.60
2023-05-16T22:06:48.524Z,8.40
2023-05-16T22:09:16.512Z,10.30
2023-05-16T22:11:44.452Z,8.20
2023-05-16T22:14:12.166Z,9.60
2023-05-16T22:16:39.936Z,8.60
2023-05-16T22:19:08.972Z,9.10
2023-05-16T22:21:37.863Z,9.90
2023-05-16T22:24:06.467Z,8.90
2023-05-16T22:26:34.309Z,7.60
2023-05-16T22:29:02.089Z,6.60
2023-05-16T22:31:29.835Z,8.20
2023-05-16T22:33:57.570Z,7.20
2023-05-16T22:36:25.592Z,7.50
2023-05-16T22:38:53.323Z,10.30
2023-05-16T22:41:21.263Z,7.90
2023-05-16T22:43:48.972Z,8.90
2023-05-16T22:46:16.929Z,10.20
2023-05-16T22:48:44.676Z,9.20
2023-05-16T22:51:12.583Z,9.00
2023-05-16T22:53:40.891Z,9.10
2023-05-16T22:56:08.608Z,11.20
2023-05-16T22:58:36.340Z,9.90
2023-05-16T23:01:04.049Z,10.90
2023-05-16T23:03:31.876Z,8.60
2023-05-16T23:05:59.771Z,12.00
2023-05-16T23:08:27.934Z,9.70
2023-05-16T23:10:55.838Z,12.30
2023-05-16T23:13:23.529Z,11.40
2023-05-16T23:15:51.337Z,9.50
2023-05-16T23:18:19.143Z,10.30
2023-05-16T23:20:47.169Z,10.70
2023-05-16T23:23:14.878Z,10.40
2023-05-16T23:25:42.604Z,10.30
2023-05-16T23:28:10.492Z,11.90
2023-05-16T23:30:38.632Z,10.50
2023-05-16T23:33:06.517Z,10.50
2023-05-16T23:35:34.464Z,10.90
2023-05-16T23:38:02.323Z,11.70
2023-05-16T23:40:30.217Z,11.40
2023-05-16T23:42:57.924Z,11.20
2023-05-16T23:45:26.356Z,11.80
2023-05-16T23:47:54.280Z,12.90
2023-05-16T23:50:23.542Z,10.70
2023-05-16T23:52:51.260Z,11.20
2023-05-16T23:55:20.348Z,13.40
2023-05-16T23:57:48.142Z,12.10
